createdAt,value
2023-03-23T16:02:06.537Z,1.80
2023-03-23T16:07:00.318Z,1.95
2023-03-23T16:11:53.739Z,1.52
2023-03-23T16:16:52.889Z,1.60
2023-03-23T16:21:46.405Z,1.88
2023-03-23T16:26:41.167Z,1.90
2023-03-23T16:31:34.493Z,2.22
2023-03-23T16:36:29.264Z,2.05
2023-03-23T16:41:22.678Z,1.90
2023-03-23T16:46:16.194Z,5.40
2023-03-23T16:51:10.299Z,2.13
2023-03-23T16:56:05.949Z,2.17
2023-03-23T17:00:59.251Z,1.77
2023-03-23T17:05:54.335Z,1.98
2023-03-23T17:10:48.372Z,1.80
2023-03-23T17:15:57.295Z,1.85
2023-03-23T17:20:53.890Z,3.33
2023-03-23T17:25:50.496Z,6.20
2023-03-23T17:30:46.327Z,6.35
2023-03-23T17:35:40.397Z,3.72
2023-03-23T17:40:34.635Z,3.60
2023-03-23T17:45:28.019Z,3.05
2023-03-23T17:50:23.020Z,4.35
2023-03-23T17:55:16.453Z,3.97
2023-03-23T18:00:12.152Z,3.28
2023-03-23T18:05:09.277Z,2.80
2023-03-23T18:10:11.664Z,3.88
2023-03-23T18:15:06.122Z,4.75
2023-03-23T18:19:59.570Z,4.50
2023-03-23T18:24:52.928Z,5.05
2023-03-23T18:29:47.835Z,5.63
2023-03-23T18:34:43.048Z,5.38
2023-03-23T18:39:37.024Z,6.05
2023-03-23T18:44:30.468Z,5.93
2023-03-23T18:49:26.812Z,5.90
2023-03-23T18:54:20.228Z,5.50
2023-03-23T18:59:13.638Z,4.38
2023-03-23T19:04:07.245Z,3.95
2023-03-23T19:09:02.127Z,4.68
2023-03-23T19:14:02.065Z,6.50
2023-03-23T19:18:56.029Z,5.97
2023-03-23T19:23:49.553Z,6.05
2023-03-23T19:29:19.231Z,5.45
2023-03-23T19:33:57.676Z,4.93
2023-03-23T19:38:51.824Z,6.63
2023-03-23T19:43:46.753Z,4.93
2023-03-23T19:48:40.478Z,4.53
2023-03-23T19:53:34.829Z,3.92
2023-03-23T19:58:28.681Z,4.70
2023-03-23T20:03:24.089Z,3.78
2023-03-23T20:08:17.906Z,3.58
2023-03-23T20:13:14.801Z,3.47
2023-03-23T20:18:08.455Z,3.67
2023-03-23T20:23:04.292Z,3.63
2023-03-23T20:27:57.655Z,3.80
2023-03-23T20:32:52.023Z,3.50
2023-03-23T20:37:45.733Z,3.60
2023-03-23T20:42:43.965Z,3.67
2023-03-23T20:47:38.725Z,4.10
2023-03-23T20:52:32.541Z,5.00
2023-03-23T20:57:32.185Z,4.57
2023-03-23T21:02:29.922Z,4.33
2023-03-23T21:07:25.879Z,4.40
2023-03-23T21:12:19.255Z,4.43
2023-03-23T21:17:12.846Z,4.57
2023-03-23T21:22:09.795Z,4.47
2023-03-23T21:27:03.532Z,5.00
2023-03-23T21:36:54.551Z,4.90
2023-03-23T21:41:50.089Z,5.17
2023-03-23T21:46:43.823Z,6.20
2023-03-23T21:51:38.991Z,5.80
2023-03-23T21:56:32.507Z,6.20
2023-03-23T22:01:28.295Z,7.40
2023-03-23T22:06:26.781Z,7.00
2023-03-23T22:11:24.290Z,11.53
2023-03-23T22:16:20.071Z,5.60
2023-03-23T22:21:16.987Z,5.97
2023-03-23T22:26:12.711Z,5.83
2023-03-23T22:31:09.478Z,5.90
2023-03-23T22:36:06.324Z,6.53
2023-03-23T22:41:02.506Z,5.93
2023-03-23T22:45:56.085Z,5.70
2023-03-23T22:50:50.520Z,6.57
2023-03-23T22:55:45.728Z,6.87
2023-03-23T23:00:45.445Z,5.80
2023-03-23T23:05:43.828Z,6.43
2023-03-23T23:10:37.543Z,7.20
2023-03-23T23:15:31.113Z,6.47
2023-03-23T23:20:26.053Z,6.17
2023-03-23T23:25:20.014Z,6.63
2023-03-23T23:30:14.670Z,6.60
2023-03-23T23:35:08.699Z,7.10
2023-03-23T23:40:06.537Z,6.73
2023-03-23T23:45:00.153Z,6.97
2023-03-23T23:49:53.722Z,6.37
2023-03-23T23:54:48.264Z,6.40
2023-03-23T23:59:43.300Z,6.73
